Current Weather

Pease International Tradeport

Pease International Tradeport, New Hampshire (KPSM)

Report from: Sunday, May 22, 2022 4:04 AM EDT
Current time: Sunday, May 22, 2022 4:31 AM EDT

Nearby weather
Weather history
Weather forecast

Present weatherMist
Temperature13.0°C (55.4°F)
Dew point13.0°C (55.4°F)
Winds 4 kts (2.1 m/s, 4.6 mph) Northeast (40°)
Visibility1 mi. (1.6 km)
Clouds Ceiling: Vertical visibility 100 ft. (30 m)
Altimeter30.01 in.Hg (1016 mB)
Relative humidity100 %
Density altitude-131 ft. (-40 m)
Sea-level pressure101.7 kPa (1017 mB, 30.02 in.Hg)
Remarks Automated weather observing station with precipitation discriminator
Flight conditions Low Instrument Meteorological Conditions
Raw dataKPSM 220804Z 04004KT 1SM R16/5500FT BR VV001 13/13 A3001 RMK AO2A SLP165
An error has occurred. This application may no longer respond until reloaded. Reload 🗙